Duvernay, Canada
Current Conditions -  °F | °C
As of 2:00 AM on Saturday 29 Nov 2014 (Local Time) from CYUL Reporting Station
Broken Clouds Broken Clouds  
Wind Chill: -7°   Ceiling: 5000
Heat Index: -7°   Visibility: 15mi
Dew Point: -11°   Wind: 2mph
Humidity: 74%   Direction: NA
Pressure: 30.22"   Gusts: NA
Location:  45.57°N, 73.85°W
Report Text: CYUL 290700Z VRB02KT 15SM FEW015 BKN050 M07/M11 A3022 RMK SF1SC7 SF TR SLP237
Loading
Personal Weather Stations






























Interactive Weather Map New forecast layout! Learn more

10-Day Weather Forecast

Advertisements
Track Severe Weather on mobile